Time;durP1;ratioP1;P1;durP2;ratioP2;P2;SDS_P1;SDS_P2;PMS_P1;PMS_P2;Temp;Humidity;BMP_temperature;BMP_pressure;BME280_temperature;BME280_humidity;BME280_pressure;Samples;Min_cycle;Max_cycle;Signal;HPM_P1;HPM_P2
2022/01/14 00:02:06;;;;;;;0.70;0.70;;;;;;;-3.41;95.84;96626.00;4961938;28;20078;-80
2022/01/14 00:04:33;;;;;;;0.60;0.60;;;;;;;-3.38;95.89;96609.75;4964853;28;20421;-80
2022/01/14 00:07:00;;;;;;;0.80;0.80;;;;;;;-3.35;96.10;96615.38;4962547;28;20074;-80
2022/01/14 00:09:32;;;;;;;0.90;0.90;;;;;;;-3.33;96.06;96618.63;4962178;28;20079;-79
2022/01/14 00:12:03;;;;;;;0.70;0.70;;;;;;;-3.24;96.19;96613.06;4962842;28;20054;-79
2022/01/14 00:14:39;;;;;;;0.73;0.73;;;;;;;-3.23;96.25;96598.88;4958101;28;20676;-79
2022/01/14 00:17:09;;;;;;;0.70;0.70;;;;;;;-3.19;96.24;96592.13;4964199;28;20069;-79
2022/01/14 00:19:37;;;;;;;0.80;0.80;;;;;;;-3.14;96.41;96585.19;4959750;28;20078;-79
2022/01/14 00:22:10;;;;;;;0.70;0.70;;;;;;;-3.07;96.50;96590.41;4961495;28;20520;-79
2022/01/14 00:33:16;;;;;;;0.60;0.60;;;;;;;-2.81;97.21;96552.41;4964345;28;20047;-79
2022/01/14 00:35:43;;;;;;;0.73;0.73;;;;;;;-2.75;96.96;96540.94;4964914;28;20057;-80
2022/01/14 00:38:12;;;;;;;0.63;0.63;;;;;;;-2.69;97.31;96526.84;4941901;28;20059;-80
2022/01/14 00:40:39;;;;;;;0.77;0.77;;;;;;;-2.56;97.28;96540.94;4943478;28;20085;-79
2022/01/14 00:43:07;;;;;;;0.80;0.80;;;;;;;-2.49;97.73;96531.91;4966736;28;20509;-81
2022/01/14 00:45:34;;;;;;;0.85;0.85;;;;;;;-2.40;97.65;96524.50;4968009;28;20954;-82
2022/01/14 00:48:04;;;;;;;0.68;0.68;;;;;;;-2.31;97.63;96523.16;4967397;28;20054;-81
2022/01/14 00:50:40;;;;;;;0.80;0.80;;;;;;;-2.21;97.81;96528.69;4960859;28;20133;-81
2022/01/14 00:53:07;;;;;;;0.70;0.70;;;;;;;-2.10;97.73;96505.19;4964581;28;20047;-80
2022/01/14 01:01:19;;;;;;;0.70;0.70;;;;;;;-1.83;98.13;96495.84;4898185;29;20056;-80
2022/01/14 01:03:47;;;;;;;0.82;0.82;;;;;;;-1.78;98.28;96487.22;4895226;29;20610;-81
2022/01/14 01:06:14;;;;;;;0.90;0.90;;;;;;;-1.71;98.47;96466.78;4898009;29;20147;-79
2022/01/14 01:08:44;;;;;;;0.80;0.80;;;;;;;-1.64;98.61;96479.91;4898152;29;20116;-80
2022/01/14 01:11:11;;;;;;;0.90;0.90;;;;;;;-1.53;98.49;96452.66;4898187;29;20049;-81
2022/01/14 01:13:43;;;;;;;0.60;0.60;;;;;;;-1.53;98.57;96448.16;4903060;29;20139;-81
2022/01/14 01:16:10;;;;;;;0.80;0.80;;;;;;;-1.48;98.56;96444.03;4902391;29;20101;-80
2022/01/14 01:18:38;;;;;;;0.68;0.68;;;;;;;-1.43;98.78;96426.41;4895946;29;20087;-80
2022/01/14 01:21:05;;;;;;;0.80;0.80;;;;;;;-1.39;98.53;96426.78;4896508;29;20112;-81
2022/01/14 01:23:32;;;;;;;0.75;0.75;;;;;;;-1.36;98.74;96415.72;4899330;29;20112;-80
2022/01/14 01:26:13;;;;;;;0.70;0.70;;;;;;;-1.39;99.00;96409.06;4887066;29;20052;-80
2022/01/14 01:31:38;;;;;;;0.68;0.68;;;;;;;-1.25;98.91;96401.66;4896412;29;20121;-81
2022/01/14 01:34:06;;;;;;;0.85;0.85;;;;;;;-1.20;98.95;96415.00;4927965;28;20525;-80
2022/01/14 01:36:34;;;;;;;0.80;0.80;;;;;;;-1.16;99.19;96399.47;4965790;28;20047;-79
2022/01/14 01:39:01;;;;;;;0.70;0.70;;;;;;;-1.15;99.11;96395.78;4967898;28;20066;-80
2022/01/14 01:41:29;;;;;;;0.90;0.90;;;;;;;-1.07;99.28;96400.72;4966164;28;20054;-77
2022/01/14 01:43:58;;;;;;;0.60;0.60;;;;;;;-1.06;99.03;96398.84;4962139;28;20756;-79
2022/01/14 01:46:25;;;;;;;0.80;0.80;;;;;;;-1.02;99.03;96400.81;4944382;28;20057;-79
2022/01/14 01:48:53;;;;;;;0.90;0.90;;;;;;;-0.99;99.28;96396.88;4961546;28;20126;-79
2022/01/14 01:51:20;;;;;;;0.63;0.63;;;;;;;-0.94;99.42;96392.53;4958272;28;20104;-79
2022/01/14 01:53:48;;;;;;;0.90;0.90;;;;;;;-0.92;99.34;96371.88;4962112;28;20047;-79
2022/01/14 01:56:16;;;;;;;0.80;0.80;;;;;;;-0.89;99.10;96367.97;4944855;28;20058;-80
2022/01/14 01:58:44;;;;;;;0.90;0.90;;;;;;;-0.84;99.08;96361.97;4957248;28;20155;-79
2022/01/14 02:01:11;;;;;;;0.90;0.90;;;;;;;-0.83;99.07;96353.78;4961625;28;20141;-79
2022/01/14 02:03:39;;;;;;;0.85;0.85;;;;;;;-0.77;98.78;96370.56;4964121;28;20142;-78
2022/01/14 02:06:06;;;;;;;0.80;0.80;;;;;;;-0.79;98.51;96357.56;4965654;28;20130;-79
2022/01/14 02:08:33;;;;;;;0.57;0.57;;;;;;;-0.77;98.44;96362.63;4965715;28;20047;-80
2022/01/14 02:11:01;;;;;;;0.70;0.70;;;;;;;-0.79;98.63;96346.97;4943351;28;20069;-80
2022/01/14 02:13:31;;;;;;;0.80;0.80;;;;;;;-0.79;98.51;96335.56;4964053;28;20054;-80
2022/01/14 02:18:38;;;;;;;0.90;0.90;;;;;;;-0.73;98.25;96342.59;4966038;28;20051;-80
2022/01/14 02:24:09;;;;;;;0.80;0.80;;;;;;;-0.67;98.14;96317.78;4966204;28;21763;-80
2022/01/14 02:26:50;;;;;;;0.70;0.70;;;;;;;-0.66;97.93;96299.00;4959929;28;20494;-80
2022/01/14 02:29:19;;;;;;;0.90;0.90;;;;;;;-0.68;97.83;96295.78;4961344;28;20481;-80
2022/01/14 02:31:46;;;;;;;0.88;0.88;;;;;;;-0.68;97.53;96289.69;4946950;28;20051;-80
2022/01/14 02:34:14;;;;;;;0.73;0.73;;;;;;;-0.71;97.68;96287.50;4947369;28;20110;-81
2022/01/14 02:36:43;;;;;;;0.90;0.90;;;;;;;-0.73;97.53;96292.25;4964733;28;20062;-80
2022/01/14 02:39:12;;;;;;;0.80;0.80;;;;;;;-0.73;97.61;96271.88;4948092;28;20073;-80
2022/01/14 02:41:40;;;;;;;0.80;0.80;;;;;;;-0.72;97.55;96280.63;4963147;28;20051;-80
2022/01/14 02:44:17;;;;;;;0.80;0.80;;;;;;;-0.72;97.83;96275.31;4965252;28;20095;-80
2022/01/14 02:46:53;;;;;;;0.80;0.80;;;;;;;-0.67;98.04;96278.06;4959325;28;20051;-81
2022/01/14 02:49:21;;;;;;;0.88;0.88;;;;;;;-0.65;97.87;96281.28;4962578;28;20141;-80
2022/01/14 02:51:49;;;;;;;0.88;0.88;;;;;;;-0.66;97.94;96245.22;4959912;28;20051;-79
2022/01/14 02:54:21;;;;;;;0.68;0.68;;;;;;;-0.61;97.89;96253.25;4963333;28;20059;-80
2022/01/14 02:56:51;;;;;;;0.80;0.80;;;;;;;-0.55;97.63;96257.59;4967218;28;20050;-79
2022/01/14 02:59:21;;;;;;;0.82;0.82;;;;;;;-0.49;97.33;96242.56;4951111;28;20485;-81
2022/01/14 03:01:49;;;;;;;0.80;0.80;;;;;;;-0.52;97.40;96227.97;4970798;28;20039;-80
2022/01/14 03:04:18;;;;;;;0.80;0.80;;;;;;;-0.55;97.11;96235.59;4971167;28;20496;-81
2022/01/14 03:06:46;;;;;;;0.80;0.80;;;;;;;-0.54;96.95;96261.03;4970185;28;20549;-80
2022/01/14 03:09:14;;;;;;;0.82;0.82;;;;;;;-0.51;97.14;96231.41;4970406;28;20489;-81
2022/01/14 03:11:46;;;;;;;0.80;0.80;;;;;;;-0.50;97.13;96231.19;4949712;28;20082;-80
2022/01/14 03:14:21;;;;;;;0.77;0.77;;;;;;;-0.48;97.01;96237.03;4962398;28;20086;-80
2022/01/14 03:16:49;;;;;;;0.80;0.80;;;;;;;-0.52;97.36;96214.72;4946038;28;20505;-81
2022/01/14 03:19:21;;;;;;;0.80;0.80;;;;;;;-0.55;97.09;96220.50;4965042;28;20485;-80
2022/01/14 03:21:52;;;;;;;0.80;0.80;;;;;;;-0.52;97.13;96204.13;4958798;28;20046;-80
2022/01/14 03:25:36;;;;;;;0.88;0.88;;;;;;;-0.50;97.10;96202.03;4963049;28;20051;-80
2022/01/14 03:27:09;;;;;;;0.70;0.70;;;;;;;-0.50;97.04;96193.28;4964268;28;20134;-80
2022/01/14 03:29:37;;;;;;;0.73;0.73;;;;;;;-0.49;97.22;96184.28;4946559;28;20051;-81
2022/01/14 03:32:06;;;;;;;0.82;0.82;;;;;;;-0.49;96.94;96165.75;4964244;28;20076;-81
2022/01/14 03:34:33;;;;;;;0.80;0.80;;;;;;;-0.48;97.04;96164.69;4963286;28;20584;-80
2022/01/14 03:37:00;;;;;;;0.80;0.80;;;;;;;-0.45;96.84;96154.41;4929480;29;20550;-81
2022/01/14 03:39:27;;;;;;;0.75;0.75;;;;;;;-0.45;96.88;96140.38;4960522;28;20517;-81
2022/01/14 03:41:55;;;;;;;0.80;0.80;;;;;;;-0.44;97.04;96147.25;4964210;28;20131;-81
2022/01/14 03:44:22;;;;;;;0.70;0.70;;;;;;;-0.42;96.80;96113.38;4946926;28;20047;-81
2022/01/14 03:46:49;;;;;;;0.90;0.90;;;;;;;-0.41;96.79;96141.47;4963592;28;20098;-82
2022/01/14 03:49:16;;;;;;;0.68;0.68;;;;;;;-0.41;96.70;96136.16;4963160;28;20050;-81
2022/01/14 03:51:44;;;;;;;0.80;0.80;;;;;;;-0.45;96.88;96130.56;4945257;28;20432;-81
2022/01/14 03:54:11;;;;;;;0.70;0.70;;;;;;;-0.43;96.86;96127.69;4961737;28;20046;-82
2022/01/14 03:56:38;;;;;;;0.80;0.80;;;;;;;-0.41;97.01;96120.28;4961980;28;20057;-82
2022/01/14 03:59:06;;;;;;;0.60;0.60;;;;;;;-0.41;97.13;96136.16;4965388;28;20225;-82
2022/01/14 04:01:33;;;;;;;0.82;0.82;;;;;;;-0.37;97.14;96120.59;4952433;28;20055;-85
2022/01/14 04:04:00;;;;;;;0.90;0.90;;;;;;;-0.36;97.01;96112.38;4963926;28;20581;-82
2022/01/14 04:06:29;;;;;;;0.80;0.80;;;;;;;-0.31;96.92;96087.81;4961429;28;20051;-81
2022/01/14 04:08:56;;;;;;;0.90;0.90;;;;;;;-0.32;96.96;96081.72;4964717;28;20435;-81
2022/01/14 04:11:23;;;;;;;0.90;0.90;;;;;;;-0.30;96.85;96073.53;4962085;28;20114;-81
2022/01/14 04:13:56;;;;;;;0.80;0.80;;;;;;;-0.25;96.86;96087.63;4963037;28;20071;-81
2022/01/14 04:16:24;;;;;;;0.70;0.70;;;;;;;-0.30;96.70;96071.66;4962628;28;20055;-81
2022/01/14 04:18:52;;;;;;;0.88;0.88;;;;;;;-0.31;97.03;96062.09;4945929;28;20062;-82
2022/01/14 04:21:19;;;;;;;0.80;0.80;;;;;;;-0.28;96.85;96044.91;4950943;28;20047;-82
2022/01/14 04:23:47;;;;;;;0.90;0.90;;;;;;;-0.30;96.99;96053.13;4951155;28;20053;-82
2022/01/14 04:26:15;;;;;;;0.90;0.90;;;;;;;-0.30;97.06;96050.47;4601175;28;9999979;-81
2022/01/14 04:28:51;;;;;;;0.63;0.63;;;;;;;-0.28;97.22;96042.25;4949816;28;20057;-80
2022/01/14 04:31:20;;;;;;;0.80;0.80;;;;;;;-0.17;97.15;96048.50;4963997;28;20095;-79
2022/01/14 04:33:47;;;;;;;0.80;0.80;;;;;;;-0.19;97.09;96048.72;4963793;28;20171;-79
2022/01/14 04:36:14;;;;;;;0.80;0.80;;;;;;;-0.13;96.90;96026.50;4962139;28;20058;-81
2022/01/14 04:38:41;;;;;;;0.68;0.68;;;;;;;-0.20;96.64;96020.63;4957671;28;20069;-82
2022/01/14 04:41:09;;;;;;;0.80;0.80;;;;;;;-0.20;96.48;96019.81;4953375;28;20141;-81
2022/01/14 04:43:36;;;;;;;0.75;0.75;;;;;;;-0.17;96.75;96014.81;4956167;28;20055;-82
2022/01/14 04:48:41;;;;;;;0.80;0.80;;;;;;;-0.13;96.94;95997.34;4934018;28;20054;-83
2022/01/14 04:51:10;;;;;;;0.80;0.80;;;;;;;-0.15;96.98;95996.00;4955726;28;20062;-81
2022/01/14 04:53:37;;;;;;;0.90;0.90;;;;;;;-0.08;96.98;95986.81;4961462;28;20056;-85
2022/01/14 04:56:05;;;;;;;0.70;0.70;;;;;;;-0.11;96.89;95982.00;4961098;28;20051;-81
2022/01/14 04:58:32;;;;;;;0.70;0.70;;;;;;;-0.10;96.60;95983.63;4957536;28;20047;-81
2022/01/14 05:00:59;;;;;;;0.90;0.90;;;;;;;-0.10;96.66;95978.31;4961110;28;20043;-82
2022/01/14 05:03:27;;;;;;;0.90;0.90;;;;;;;-0.08;96.43;95975.41;4958804;28;20458;-80
2022/01/14 05:05:57;;;;;;;0.90;0.90;;;;;;;-0.05;96.68;95981.03;4960933;28;20062;-81
2022/01/14 05:08:34;;;;;;;0.77;0.77;;;;;;;-0.09;96.35;95964.00;4961315;28;20583;-81
2022/01/14 05:11:52;;;;;;;0.90;0.90;;;;;;;-0.12;96.63;95964.50;4957560;28;20102;-81
2022/01/14 05:13:51;;;;;;;0.80;0.80;;;;;;;-0.13;96.77;95954.94;4950238;28;20072;-79
2022/01/14 05:16:18;;;;;;;0.70;0.70;;;;;;;-0.15;97.01;95961.53;4959839;28;20070;-82
2022/01/14 05:18:46;;;;;;;0.90;0.90;;;;;;;-0.14;97.06;95949.91;4945574;28;20070;-81
2022/01/14 05:21:14;;;;;;;0.70;0.70;;;;;;;-0.19;97.15;95940.06;4962726;28;20433;-81
2022/01/14 05:23:42;;;;;;;0.85;0.85;;;;;;;-0.30;97.28;95927.75;4963649;28;20177;-81
2022/01/14 05:26:11;;;;;;;0.70;0.70;;;;;;;-0.19;97.52;95934.75;4962846;28;20054;-83
2022/01/14 05:28:40;;;;;;;0.90;0.90;;;;;;;-0.17;97.37;95929.22;4961389;28;20043;-82
2022/01/14 05:31:07;;;;;;;0.82;0.82;;;;;;;-0.15;97.34;95917.31;4964186;28;20106;-82
2022/01/14 05:33:41;;;;;;;0.90;0.90;;;;;;;-0.15;97.20;95906.69;4961597;28;20108;-81
2022/01/14 05:36:08;;;;;;;0.80;0.80;;;;;;;-0.17;97.15;95908.00;4964908;28;20421;-81
2022/01/14 05:38:35;;;;;;;0.80;0.80;;;;;;;-0.15;97.36;95896.09;4952062;28;20074;-81
2022/01/14 05:41:02;;;;;;;0.80;0.80;;;;;;;-0.19;97.08;95895.00;4964257;28;20044;-81
2022/01/14 05:43:30;;;;;;;0.90;0.90;;;;;;;-0.22;97.19;95876.94;4961492;28;20086;-82
2022/01/14 05:45:57;;;;;;;0.80;0.80;;;;;;;-0.25;97.55;95872.16;4964974;28;20074;-83
2022/01/14 05:48:24;;;;;;;0.90;0.90;;;;;;;-0.21;97.37;95878.53;4955838;28;20078;-81
2022/01/14 05:50:51;;;;;;;0.77;0.77;;;;;;;-0.27;97.28;95874.25;4960219;28;20146;-81
2022/01/14 05:53:19;;;;;;;0.80;0.80;;;;;;;-0.23;97.32;95878.81;4958023;28;20103;-81
2022/01/14 05:55:47;;;;;;;0.60;0.60;;;;;;;-0.20;97.44;95872.19;4955936;28;20197;-81
2022/01/14 05:58:14;;;;;;;0.82;0.82;;;;;;;-0.20;97.46;95856.28;4965467;28;20102;-79
2022/01/14 06:00:41;;;;;;;0.77;0.77;;;;;;;-0.19;97.31;95847.28;4957128;28;20486;-82
2022/01/14 06:03:08;;;;;;;0.70;0.70;;;;;;;-0.23;97.36;95862.91;4957978;28;20050;-82
2022/01/14 06:05:36;;;;;;;0.90;0.90;;;;;;;-0.16;97.22;95840.69;4967180;28;20529;-81
2022/01/14 06:08:03;;;;;;;0.80;0.80;;;;;;;-0.16;97.21;95825.56;4971791;28;20069;-81
2022/01/14 06:10:30;;;;;;;0.90;0.90;;;;;;;-0.19;97.13;95827.94;4949013;28;20109;-81
2022/01/14 06:12:57;;;;;;;0.80;0.80;;;;;;;-0.15;97.18;95810.44;4966573;28;20051;-80
2022/01/14 06:15:25;;;;;;;0.80;0.80;;;;;;;-0.16;97.38;95820.25;4603839;29;10000117;-81
2022/01/14 06:17:53;;;;;;;0.80;0.80;;;;;;;-0.13;97.37;95809.16;4960337;28;20124;-80
2022/01/14 06:20:20;;;;;;;0.73;0.73;;;;;;;-0.17;97.25;95808.06;4961538;28;20047;-80
2022/01/14 06:22:47;;;;;;;0.80;0.80;;;;;;;-0.16;97.34;95793.75;4941207;28;20061;-82
2022/01/14 06:25:15;;;;;;;0.90;0.90;;;;;;;-0.17;97.35;95780.78;4957124;28;20047;-82
2022/01/14 06:27:42;;;;;;;0.88;0.88;;;;;;;-0.18;97.38;95764.03;4961367;28;20059;-80
2022/01/14 06:30:10;;;;;;;0.80;0.80;;;;;;;-0.12;97.37;95767.56;4953178;28;20074;-77
2022/01/14 06:32:41;;;;;;;0.90;0.90;;;;;;;-0.14;97.44;95754.53;4942897;28;20395;-82
2022/01/14 06:35:13;;;;;;;0.70;0.70;;;;;;;-0.14;97.32;95753.75;4960873;28;20054;-81
2022/01/14 06:37:41;;;;;;;0.90;0.90;;;;;;;-0.15;97.57;95757.44;4958248;28;20053;-80
2022/01/14 06:40:09;;;;;;;0.90;0.90;;;;;;;-0.13;97.58;95742.09;4936008;28;20047;-82
2022/01/14 06:42:45;;;;;;;0.80;0.80;;;;;;;-0.10;97.75;95752.16;4953890;28;20524;-80
2022/01/14 06:45:13;;;;;;;0.77;0.77;;;;;;;-0.14;97.32;95756.41;4967540;28;20074;-81
2022/01/14 06:47:40;;;;;;;0.77;0.77;;;;;;;-0.16;97.67;95738.09;4958733;28;20107;-78
2022/01/14 06:50:07;;;;;;;0.90;0.90;;;;;;;-0.17;97.70;95739.16;4966460;28;20115;-79
2022/01/14 06:52:34;;;;;;;0.90;0.90;;;;;;;-0.13;97.72;95744.72;4958134;28;20054;-79
2022/01/14 06:55:03;;;;;;;0.80;0.80;;;;;;;-0.07;97.52;95733.91;4965217;28;20055;-80
2022/01/14 06:57:30;;;;;;;0.80;0.80;;;;;;;-0.09;97.32;95720.13;4958313;28;20581;-80
2022/01/14 06:59:57;;;;;;;0.90;0.90;;;;;;;-0.10;97.05;95713.22;4941734;28;20111;-80
2022/01/14 07:02:25;;;;;;;0.80;0.80;;;;;;;-0.08;96.86;95721.69;4950350;28;20557;-80
2022/01/14 07:04:52;;;;;;;0.85;0.85;;;;;;;-0.08;96.95;95731.50;4950306;28;20053;-80
2022/01/14 07:07:19;;;;;;;0.80;0.80;;;;;;;-0.08;96.94;95727.00;4958023;28;20504;-79
2022/01/14 07:09:58;;;;;;;0.75;0.75;;;;;;;-0.06;96.91;95724.09;4956395;28;20174;-80
2022/01/14 07:12:32;;;;;;;0.90;0.90;;;;;;;-0.07;96.96;95728.63;4953025;28;20058;-78
2022/01/14 07:15:00;;;;;;;0.90;0.90;;;;;;;-0.02;96.89;95707.44;4954941;28;20047;-82
2022/01/14 07:17:29;;;;;;;0.88;0.88;;;;;;;-0.04;96.91;95704.22;4959987;28;20047;-79
2022/01/14 07:20:00;;;;;;;0.90;0.90;;;;;;;0.06;96.67;95716.75;4951900;28;20047;-82
2022/01/14 07:22:28;;;;;;;0.80;0.80;;;;;;;0.05;96.13;95707.22;4948951;28;20059;-80
2022/01/14 07:24:55;;;;;;;0.77;0.77;;;;;;;0.11;95.60;95698.22;4949974;28;20079;-81
2022/01/14 07:27:22;;;;;;;0.90;0.90;;;;;;;0.09;95.20;95675.66;4937212;28;20106;-82
2022/01/14 07:29:49;;;;;;;0.73;0.73;;;;;;;0.05;95.40;95671.91;4950280;28;20055;-82
2022/01/14 07:32:16;;;;;;;0.80;0.80;;;;;;;-0.04;95.39;95669.78;4952120;28;21879;-82
2022/01/14 07:34:45;;;;;;;0.82;0.82;;;;;;;0.01;95.51;95649.66;4949791;28;20058;-82
2022/01/14 07:37:12;;;;;;;0.70;0.70;;;;;;;0.04;95.44;95649.13;4947878;29;20055;-83
2022/01/14 07:39:40;;;;;;;0.80;0.80;;;;;;;0.08;94.96;95643.06;4958366;28;20082;-82
2022/01/14 07:42:11;;;;;;;0.85;0.85;;;;;;;0.00;94.92;95646.22;4947829;28;20167;-84
2022/01/14 07:44:39;;;;;;;0.90;0.90;;;;;;;0.01;94.84;95626.56;4960474;28;20130;-83
2022/01/14 07:47:06;;;;;;;0.85;0.85;;;;;;;0.04;94.77;95619.97;4935013;28;20141;-82
2022/01/14 07:49:35;;;;;;;0.70;0.70;;;;;;;0.05;94.67;95619.72;4953473;28;20047;-84
2022/01/14 07:52:04;;;;;;;0.80;0.80;;;;;;;0.04;94.77;95620.75;4951407;28;20054;-85
2022/01/14 07:54:31;;;;;;;0.90;0.90;;;;;;;0.03;94.36;95605.13;4956205;28;20062;-83
2022/01/14 07:57:00;;;;;;;0.80;0.80;;;;;;;0.02;94.82;95601.66;4955475;28;20058;-82
2022/01/14 07:59:30;;;;;;;0.80;0.80;;;;;;;0.02;94.47;95596.34;4953878;28;20427;-82
2022/01/14 08:01:59;;;;;;;0.82;0.82;;;;;;;-0.05;94.34;95583.34;4963510;28;20050;-83
2022/01/14 08:04:27;;;;;;;0.80;0.80;;;;;;;-0.02;94.38;95584.69;4951541;28;20059;-82
2022/01/14 08:06:58;;;;;;;0.90;0.90;;;;;;;-0.02;94.39;95588.13;4937058;28;20200;-83
2022/01/14 08:09:25;;;;;;;0.90;0.90;;;;;;;0.02;94.25;95590.25;4939002;28;20066;-82
2022/01/14 08:11:52;;;;;;;0.90;0.90;;;;;;;0.03;94.10;95592.66;4939935;28;20071;-82
2022/01/14 08:14:21;;;;;;;0.70;0.70;;;;;;;-0.02;94.02;95580.19;4950891;28;20145;-83
2022/01/14 08:16:50;;;;;;;0.80;0.80;;;;;;;0.02;93.80;95569.84;4935019;28;20090;-84
2022/01/14 08:19:17;;;;;;;0.90;0.90;;;;;;;0.02;93.82;95580.44;4936598;28;20059;-86
2022/01/14 08:21:44;;;;;;;0.82;0.82;;;;;;;0.04;93.55;95551.81;4938626;28;20062;-82
2022/01/14 08:24:11;;;;;;;0.80;0.80;;;;;;;0.03;93.74;95536.19;4941060;28;20144;-84
2022/01/14 08:26:38;;;;;;;0.80;0.80;;;;;;;0.02;93.82;95545.97;4941128;28;20078;-87
2022/01/14 08:29:06;;;;;;;0.90;0.90;;;;;;;-0.01;93.76;95542.00;4947496;28;20121;-85
2022/01/14 08:31:33;;;;;;;0.82;0.82;;;;;;;0.03;93.46;95536.19;4950561;28;20059;-87
2022/01/14 08:34:00;;;;;;;0.70;0.70;;;;;;;-0.05;93.36;95503.81;4956287;28;20124;-85
2022/01/14 08:36:30;;;;;;;0.90;0.90;;;;;;;-0.07;93.34;95492.69;4945810;28;20713;-86
2022/01/14 08:38:59;;;;;;;0.90;0.90;;;;;;;-0.01;93.50;95488.19;4963623;28;20126;-84
2022/01/14 08:41:30;;;;;;;0.80;0.80;;;;;;;0.01;93.15;95496.66;4956812;28;20080;-86
2022/01/14 08:43:59;;;;;;;0.90;0.90;;;;;;;0.03;93.32;95488.47;4932622;28;20153;-84
2022/01/14 08:46:46;;;;;;;0.88;0.88;;;;;;;-0.01;93.21;95472.28;4937261;28;20058;-85
2022/01/14 08:49:39;;;;;;;0.90;0.90;;;;;;;0.02;93.24;95478.91;4941469;28;20141;-85
2022/01/14 08:52:09;;;;;;;0.90;0.90;;;;;;;-0.02;93.05;95463.53;4944123;28;20051;-87
2022/01/14 08:54:37;;;;;;;0.70;0.70;;;;;;;-0.04;93.13;95455.03;4967440;28;20039;-89
2022/01/14 08:57:05;;;;;;;0.90;0.90;;;;;;;-0.14;93.58;95460.31;4964511;28;20573;-87
2022/01/14 08:59:32;;;;;;;0.90;0.90;;;;;;;-0.08;93.74;95435.41;4955407;28;20055;-88
2022/01/14 09:02:03;;;;;;;0.90;0.90;;;;;;;0.00;93.62;95442.06;4954628;28;20054;-86
2022/01/14 09:04:30;;;;;;;0.80;0.80;;;;;;;0.03;93.96;95446.03;4956232;28;20510;-84
2022/01/14 09:07:01;;;;;;;0.80;0.80;;;;;;;0.10;93.58;95462.47;4940493;28;20147;-85
2022/01/14 09:09:31;;;;;;;0.90;0.90;;;;;;;0.10;92.93;95418.22;4953432;28;20070;-87
2022/01/14 09:12:00;;;;;;;0.90;0.90;;;;;;;0.07;92.58;95404.66;4943775;28;20055;-87
2022/01/14 09:14:27;;;;;;;0.80;0.80;;;;;;;0.13;92.71;95404.41;4932947;28;20063;-87
2022/01/14 09:16:58;;;;;;;0.80;0.80;;;;;;;0.13;92.63;95406.28;4924213;28;20055;-83
2022/01/14 09:19:26;;;;;;;0.80;0.80;;;;;;;0.10;92.40;95393.53;4951580;28;20109;-85
2022/01/14 09:21:53;;;;;;;0.90;0.90;;;;;;;0.14;92.74;95386.63;4954689;28;20164;-87
2022/01/14 09:24:41;;;;;;;0.80;0.80;;;;;;;0.18;92.41;95385.06;4940565;28;20055;-84
2022/01/14 09:27:09;;;;;;;0.80;0.80;;;;;;;0.18;92.60;95363.84;4956178;28;20051;-88
2022/01/14 09:29:36;;;;;;;0.80;0.80;;;;;;;0.18;92.34;95363.84;4938246;28;20047;-86
2022/01/14 09:32:05;;;;;;;0.90;0.90;;;;;;;0.25;91.87;95369.66;4925713;28;20561;-87
2022/01/14 09:34:36;;;;;;;0.90;0.90;;;;;;;0.19;91.55;95360.91;4961648;28;20047;-86
2022/01/14 09:37:04;;;;;;;0.90;0.90;;;;;;;0.18;91.66;95345.28;4942357;28;20063;-87
2022/01/14 09:39:32;;;;;;;0.90;0.90;;;;;;;0.20;91.77;95345.78;4944424;28;20047;-86
2022/01/14 09:42:01;;;;;;;0.90;0.90;;;;;;;0.17;91.89;95341.03;4930418;29;20074;-88
2022/01/14 09:44:30;;;;;;;0.90;0.90;;;;;;;0.20;91.89;95327.22;4952426;28;20066;-86
2022/01/14 09:47:00;;;;;;;0.80;0.80;;;;;;;0.20;91.72;95314.78;4961122;28;20057;-88
2022/01/14 09:49:28;;;;;;;0.80;0.80;;;;;;;0.24;91.28;95306.28;4965542;28;20123;-87
2022/01/14 09:51:56;;;;;;;0.90;0.90;;;;;;;0.21;91.14;95308.41;4933765;28;20508;-87
2022/01/14 09:54:23;;;;;;;0.90;0.90;;;;;;;0.22;91.39;95311.84;4941269;28;20079;-93
2022/01/14 09:56:50;;;;;;;0.90;0.90;;;;;;;0.26;90.76;95296.22;4923084;28;20058;-87
2022/01/14 09:59:18;;;;;;;0.70;0.70;;;;;;;0.23;90.51;95292.22;4943758;28;20055;-87
2022/01/14 10:01:47;;;;;;;0.90;0.90;;;;;;;0.31;89.96;95301.50;4952135;28;20075;-87
2022/01/14 10:04:22;;;;;;;0.90;0.90;;;;;;;0.32;89.70;95289.81;4950440;28;20054;-82
2022/01/14 10:06:54;;;;;;;0.85;0.85;;;;;;;0.27;90.00;95276.56;4960146;28;20062;-88
2022/01/14 10:09:25;;;;;;;0.90;0.90;;;;;;;0.17;90.31;95267.56;4952981;28;20103;-85
2022/01/14 10:12:02;;;;;;;0.80;0.80;;;;;;;0.19;90.30;95270.75;4945653;28;20043;-90
2022/01/14 10:14:30;;;;;;;0.80;0.80;;;;;;;0.16;90.72;95260.69;4962600;28;20052;-92
2022/01/14 10:17:04;;;;;;;0.80;0.80;;;;;;;0.23;90.60;95260.41;4926289;29;20055;-88
2022/01/14 10:19:39;;;;;;;0.80;0.80;;;;;;;0.23;90.48;95247.16;4941874;28;20061;-89
2022/01/14 10:22:28;;;;;;;0.90;0.90;;;;;;;0.29;90.80;95238.09;4955593;28;20059;-85
2022/01/14 10:25:16;;;;;;;0.90;0.90;;;;;;;0.33;90.33;95241.81;4960229;28;20068;-85
2022/01/14 10:27:52;;;;;;;0.95;0.95;;;;;;;0.31;90.19;95235.19;4958117;28;20055;-84
2022/01/14 10:30:31;;;;;;;0.90;0.90;;;;;;;0.30;89.94;95226.41;4955387;28;20055;-86
2022/01/14 10:33:05;;;;;;;0.80;0.80;;;;;;;0.17;90.09;95206.56;4965644;28;20054;-86
2022/01/14 10:35:45;;;;;;;0.73;0.73;;;;;;;0.29;89.79;95208.94;4958506;28;20450;-85
2022/01/14 10:38:16;;;;;;;1.00;1.00;;;;;;;0.28;89.49;95199.41;4944715;28;20494;-88
2022/01/14 10:40:48;;;;;;;0.95;0.95;;;;;;;0.29;89.58;95185.06;4932409;28;20051;-86
2022/01/14 10:43:17;;;;;;;0.80;0.80;;;;;;;0.29;89.27;95189.56;4938795;28;20165;-87
2022/01/14 10:45:54;;;;;;;0.80;0.80;;;;;;;0.29;88.71;95174.44;4959378;28;20066;-87
2022/01/14 10:48:43;;;;;;;0.90;0.90;;;;;;;0.39;88.89;95170.97;4964632;28;20099;-84
2022/01/14 10:51:14;;;;;;;0.90;0.90;;;;;;;0.39;88.01;95163.78;4955376;28;20059;-85
2022/01/14 10:53:44;;;;;;;0.90;0.90;;;;;;;0.36;87.85;95169.66;4962747;28;20086;-85
2022/01/14 10:56:13;;;;;;;0.80;0.80;;;;;;;0.35;88.03;95160.09;4930459;29;20054;-84
2022/01/14 10:58:43;;;;;;;0.90;0.90;;;;;;;0.32;87.76;95163.28;4946781;28;20047;-86
2022/01/14 11:01:20;;;;;;;0.80;0.80;;;;;;;0.24;88.26;95181.63;4931390;28;20057;-87
2022/01/14 11:04:00;;;;;;;0.90;0.90;;;;;;;0.20;88.44;95176.88;4959991;28;20051;-86
2022/01/14 11:06:32;;;;;;;0.80;0.80;;;;;;;0.32;88.91;95184.50;4936656;28;20518;-86
2022/01/14 11:09:05;;;;;;;0.90;0.90;;;;;;;0.32;89.08;95163.28;4968723;28;20063;-86
2022/01/14 11:11:37;;;;;;;0.90;0.90;;;;;;;0.31;89.20;95159.06;4950155;28;20462;-87
2022/01/14 11:14:06;;;;;;;0.80;0.80;;;;;;;0.35;89.10;95156.66;4958017;28;20142;-87
2022/01/14 11:16:35;;;;;;;0.88;0.88;;;;;;;0.40;88.70;95148.66;4941407;28;20059;-86
2022/01/14 11:19:04;;;;;;;0.88;0.88;;;;;;;0.38;88.81;95170.16;4968397;28;20042;-87
2022/01/14 11:24:23;;;;;;;0.90;0.90;;;;;;;-0.02;88.81;95181.75;4944026;28;20047;-86
2022/01/14 11:26:58;;;;;;;0.80;0.80;;;;;;;-0.33;89.30;95178.38;4957317;28;20047;-87
2022/01/14 11:29:32;;;;;;;0.70;0.70;;;;;;;-0.58;90.21;95172.06;4960295;28;20077;-87
2022/01/14 11:32:03;;;;;;;0.80;0.80;;;;;;;-0.69;90.99;95176.56;4931377;28;20103;-86
2022/01/14 11:34:40;;;;;;;0.80;0.80;;;;;;;-0.70;91.44;95163.63;4950486;28;20055;-86
2022/01/14 11:37:08;;;;;;;0.80;0.80;;;;;;;-0.73;91.83;95169.44;4968136;28;20122;-84
2022/01/14 11:39:38;;;;;;;0.85;0.85;;;;;;;-0.79;91.91;95168.63;4949510;28;20071;-84
2022/01/14 11:42:13;;;;;;;0.88;0.88;;;;;;;-0.77;92.52;95163.88;4950477;28;20051;-86
2022/01/14 11:44:56;;;;;;;0.80;0.80;;;;;;;-0.72;92.73;95144.53;4948112;28;20063;-86
2022/01/14 11:47:37;;;;;;;0.73;0.73;;;;;;;-0.75;92.88;95151.16;4962703;28;20147;-87
2022/01/14 11:50:27;;;;;;;0.80;0.80;;;;;;;-0.76;92.98;95141.66;4948651;29;20055;-88
2022/01/14 11:52:56;;;;;;;0.75;0.75;;;;;;;-0.79;92.68;95136.06;4945738;28;20055;-86
2022/01/14 11:55:43;;;;;;;0.90;0.90;;;;;;;-0.79;92.66;95130.78;4946952;29;20043;-87
2022/01/14 11:58:22;;;;;;;0.90;0.90;;;;;;;-0.85;92.44;95122.06;4956688;28;20075;-87
2022/01/14 12:00:51;;;;;;;0.90;0.90;;;;;;;-0.82;92.26;95118.09;4968047;28;20043;-86
2022/01/14 12:03:29;;;;;;;0.90;0.90;;;;;;;-0.91;92.19;95117.84;4970086;28;20082;-87
2022/01/14 12:06:07;;;;;;;0.95;0.95;;;;;;;-0.89;91.67;95115.69;4965761;28;20075;-88
2022/01/14 12:08:40;;;;;;;0.90;0.90;;;;;;;-0.95;91.09;95119.44;4976613;28;20055;-89
2022/01/14 12:11:08;;;;;;;0.90;0.90;;;;;;;-0.95;90.72;95108.84;4991233;28;20042;-89
2022/01/14 12:14:03;;;;;;;0.80;0.80;;;;;;;-0.99;90.26;95099.81;4980592;28;20050;-89
2022/01/14 12:16:47;;;;;;;0.90;0.90;;;;;;;-1.04;90.10;95089.25;4951611;28;20505;-88
2022/01/14 12:19:43;;;;;;;0.90;0.90;;;;;;;-1.01;89.93;95091.34;4937407;28;20106;-88